Time;durP1;ratioP1;P1;durP2;ratioP2;P2;SDS_P1;SDS_P2;PMS_P1;PMS_P2;Temp;Humidity;BMP_temperature;BMP_pressure;BME280_temperature;BME280_humidity;BME280_pressure;Samples;Min_cycle;Max_cycle;Signal;HPM_P1;HPM_P2
2024/01/03 00:00:44;0.00;0.00;0.62;0.00;0.00;0.62;4.83;3.70;;;21.30;27.50;;;;;;2265122;61;20378;-57
2024/01/03 00:03:31;0.00;0.00;0.62;0.00;0.00;0.62;5.03;3.50;;;21.30;27.50;;;;;;2265131;61;20863;-59
2024/01/03 00:06:16;0.00;0.00;0.62;0.00;0.00;0.62;4.27;3.20;;;21.30;27.50;;;;;;2265027;61;20364;-56
2024/01/03 00:09:01;0.00;0.00;0.62;0.00;0.00;0.62;5.60;3.20;;;21.30;27.50;;;;;;2265260;61;20360;-56
2024/01/03 00:11:47;0.00;0.00;0.62;0.00;0.00;0.62;5.83;3.30;;;21.30;27.50;;;;;;2264970;61;20915;-55
2024/01/03 00:14:34;0.00;0.00;0.62;0.00;0.00;0.62;4.10;2.90;;;21.30;27.50;;;;;;2265249;61;20887;-56
2024/01/03 00:17:22;0.00;0.00;0.62;0.00;0.00;0.62;4.23;3.00;;;21.30;27.50;;;;;;2264694;61;20410;-57
2024/01/03 00:20:08;0.00;0.00;0.62;0.00;0.00;0.62;4.80;3.20;;;21.30;27.50;;;;;;2265135;61;20626;-59
2024/01/03 00:22:53;0.00;0.00;0.62;0.00;0.00;0.62;5.20;3.23;;;21.30;27.50;;;;;;2264938;61;20447;-57
2024/01/03 00:25:37;0.00;0.00;0.62;0.00;0.00;0.62;3.80;2.50;;;21.40;27.60;;;;;;2265322;61;20479;-56
2024/01/03 00:28:23;0.00;0.00;0.62;0.00;0.00;0.62;4.00;2.70;;;21.30;27.50;;;;;;2264756;61;20833;-57
2024/01/03 00:31:09;0.00;0.00;0.62;0.00;0.00;0.62;6.47;3.40;;;21.30;27.50;;;;;;2265082;61;20415;-55
2024/01/03 00:33:56;0.00;0.00;0.62;0.00;0.00;0.62;3.60;2.40;;;21.30;27.50;;;;;;2264564;61;20439;-58
2024/01/03 00:36:41;0.00;0.00;0.62;0.00;0.00;0.62;5.67;3.13;;;21.30;27.50;;;;;;2264867;61;20364;-59
2024/01/03 00:39:29;0.00;0.00;0.62;0.00;0.00;0.62;4.73;2.97;;;21.40;27.60;;;;;;2265332;61;20368;-57
2024/01/03 00:42:14;0.00;0.00;0.62;0.00;0.00;0.62;4.23;3.00;;;21.40;27.60;;;;;;2264168;61;20368;-55
2024/01/03 00:45:00;0.00;0.00;0.62;0.00;0.00;0.62;5.93;3.37;;;21.30;27.50;;;;;;2265405;61;20356;-57
2024/01/03 00:47:45;0.00;0.00;0.62;0.00;0.00;0.62;3.93;2.67;;;21.30;27.50;;;;;;2265306;61;20368;-55
2024/01/03 00:50:30;0.00;0.00;0.62;0.00;0.00;0.62;3.13;2.20;;;21.30;28.00;;;;;;2264962;61;20387;-58
2024/01/03 00:53:16;0.00;0.00;0.62;0.00;0.00;0.62;5.47;2.97;;;21.30;27.50;;;;;;2264894;61;20360;-53
2024/01/03 00:56:01;0.00;0.00;0.62;0.00;0.00;0.62;6.17;2.97;;;21.30;27.50;;;;;;2264867;61;20467;-55
2024/01/03 00:58:47;0.00;0.00;0.62;0.00;0.00;0.62;4.60;3.00;;;21.30;27.50;;;;;;2265131;61;20426;-57
2024/01/03 01:01:32;0.00;0.00;0.62;0.00;0.00;0.62;3.30;2.70;;;21.30;27.50;;;;;;2265225;61;20986;-60
2024/01/03 01:04:17;0.00;0.00;0.62;0.00;0.00;0.62;4.47;2.90;;;21.40;27.60;;;;;;2264982;61;20906;-55
2024/01/03 01:07:02;0.00;0.00;0.62;0.00;0.00;0.62;3.80;2.37;;;21.30;27.50;;;;;;2265416;61;20359;-58
2024/01/03 01:09:47;0.00;0.00;0.62;0.00;0.00;0.62;7.40;2.60;;;21.30;27.50;;;;;;2265597;61;20372;-56
2024/01/03 01:12:31;0.00;0.00;0.62;0.00;0.00;0.62;3.60;2.43;;;21.40;27.60;;;;;;2264350;61;20381;-58
2024/01/03 01:15:16;0.00;0.00;0.62;0.00;0.00;0.62;3.47;2.30;;;21.40;27.60;;;;;;2265045;61;20391;-55
2024/01/03 01:18:02;0.00;0.00;0.62;0.00;0.00;0.62;5.33;2.30;;;21.30;27.50;;;;;;2265024;61;20363;-57
2024/01/03 01:20:46;0.00;0.00;0.62;0.00;0.00;0.62;3.27;2.40;;;21.40;27.60;;;;;;2264699;61;20384;-55
2024/01/03 01:23:31;0.00;0.00;0.62;0.00;0.00;0.62;3.63;2.13;;;21.30;27.50;;;;;;2264942;61;20363;-55
2024/01/03 01:26:15;0.00;0.00;0.62;0.00;0.00;0.62;3.10;2.07;;;21.30;27.50;;;;;;2264441;61;20490;-56
2024/01/03 01:29:01;0.00;0.00;0.62;0.00;0.00;0.62;3.53;2.27;;;21.30;27.50;;;;;;2264728;61;20828;-57
2024/01/03 01:31:47;0.00;0.00;0.62;0.00;0.00;0.62;3.00;2.10;;;21.30;27.50;;;;;;2264565;61;20399;-58
2024/01/03 01:34:33;0.00;0.00;0.62;0.00;0.00;0.62;3.50;2.60;;;21.30;27.50;;;;;;2264966;61;20388;-54
2024/01/03 01:37:17;0.00;0.00;0.62;0.00;0.00;0.62;4.30;2.30;;;21.40;27.50;;;;;;2265012;61;20498;-58
2024/01/03 01:40:02;0.00;0.00;0.62;0.00;0.00;0.62;4.40;3.07;;;21.40;27.50;;;;;;2271642;39;20508;-56
2024/01/03 01:42:47;0.00;0.00;0.62;0.00;0.00;0.62;4.30;2.33;;;21.30;27.40;;;;;;2257406;61;20369;-56
2024/01/03 01:45:32;0.00;0.00;0.62;0.00;0.00;0.62;3.40;2.20;;;21.40;27.50;;;;;;2261034;61;20749;-58
2024/01/03 01:48:18;0.00;0.00;0.62;0.00;0.00;0.62;5.40;2.40;;;21.30;27.40;;;;;;2261032;61;20368;-60
2024/01/03 01:51:05;0.00;0.00;0.62;0.00;0.00;0.62;3.80;2.20;;;21.40;27.50;;;;;;2260870;61;20382;-55
2024/01/03 01:53:50;0.00;0.00;0.62;0.00;0.00;0.62;3.10;2.10;;;21.40;27.50;;;;;;2260919;61;20404;-58
2024/01/03 01:56:35;0.00;0.00;0.62;0.00;0.00;0.62;3.37;2.33;;;21.40;27.50;;;;;;2260803;61;20404;-58
2024/01/03 01:59:21;0.00;0.00;0.62;0.00;0.00;0.62;5.03;2.70;;;21.40;27.40;;;;;;2257828;61;20794;-54
2024/01/03 02:02:06;0.00;0.00;0.62;0.00;0.00;0.62;3.70;2.50;;;21.30;27.40;;;;;;2257690;61;20377;-56
2024/01/03 02:04:52;0.00;0.00;0.62;0.00;0.00;0.62;2.80;2.33;;;21.40;27.40;;;;;;2260827;61;20381;-58
2024/01/03 02:07:38;0.00;0.00;0.62;0.00;0.00;0.62;3.70;2.10;;;21.40;27.40;;;;;;2261219;61;20766;-56
2024/01/03 02:10:23;0.00;0.00;0.62;0.00;0.00;0.62;4.10;2.43;;;21.30;27.40;;;;;;2257896;61;20504;-56
2024/01/03 02:13:07;0.00;0.00;0.62;0.00;0.00;0.62;3.93;2.60;;;21.40;27.50;;;;;;2257580;61;20373;-57
2024/01/03 02:15:52;0.00;0.00;0.62;0.00;0.00;0.62;3.10;2.53;;;21.40;27.70;;;;;;2260846;61;20480;-58
2024/01/03 02:18:39;0.00;0.00;0.62;0.00;0.00;0.62;3.77;2.10;;;21.40;27.60;;;;;;2257470;61;20385;-59
2024/01/03 02:21:25;0.00;0.00;0.62;0.00;0.00;0.62;3.90;2.20;;;21.40;27.40;;;;;;2261130;61;20381;-57
2024/01/03 02:24:10;0.00;0.00;0.62;0.00;0.00;0.62;4.50;2.97;;;21.40;27.40;;;;;;2257678;61;20365;-53
2024/01/03 02:26:54;0.00;0.00;0.62;0.00;0.00;0.62;3.60;2.90;;;21.40;27.40;;;;;;2260748;61;20830;-60
2024/01/03 02:29:39;0.00;0.00;0.62;0.00;0.00;0.62;3.20;2.10;;;21.40;27.40;;;;;;2257086;61;20361;-58
2024/01/03 02:32:23;0.00;0.00;0.62;0.00;0.00;0.62;3.47;2.43;;;21.40;27.40;;;;;;2253149;58;20378;-55
2024/01/03 02:35:08;0.00;0.00;0.62;0.00;0.00;0.62;3.10;2.20;;;21.40;27.40;;;;;;2519257;53;20397;-53
2024/01/03 02:37:54;0.00;0.00;0.62;0.00;0.00;0.62;3.57;2.03;;;21.40;27.30;;;;;;2257105;61;20370;-56
2024/01/03 02:40:41;0.00;0.00;0.62;0.00;0.00;0.62;4.07;2.20;;;21.40;27.30;;;;;;2256598;61;20447;-59
2024/01/03 02:43:25;0.00;0.00;0.62;0.00;0.00;0.62;3.47;1.90;;;21.40;27.30;;;;;;2256561;61;20386;-58
2024/01/03 02:46:10;0.00;0.00;0.62;0.00;0.00;0.62;3.57;1.83;;;21.40;27.20;;;;;;2256827;61;20376;-55
2024/01/03 02:48:54;0.00;0.00;0.62;0.00;0.00;0.62;6.60;2.20;;;21.40;27.20;;;;;;2256615;61;20432;-56
2024/01/03 02:51:39;0.00;0.00;0.62;0.00;0.00;0.62;2.83;1.70;;;21.50;27.30;;;;;;2256793;61;20389;-55
2024/01/03 02:54:25;0.00;0.00;0.62;0.00;0.00;0.62;3.57;2.30;;;21.40;27.20;;;;;;2256876;61;20382;-54
2024/01/03 02:57:11;0.00;0.00;0.62;0.00;0.00;0.62;3.60;1.70;;;21.50;27.20;;;;;;2256458;61;20370;-57
2024/01/03 02:59:55;0.00;0.00;0.62;0.00;0.00;0.62;2.50;1.73;;;21.50;27.20;;;;;;2256791;61;20798;-59
2024/01/03 03:02:40;0.00;0.00;0.62;0.00;0.00;0.62;2.70;1.70;;;21.50;27.20;;;;;;2255887;61;20600;-58
2024/01/03 03:05:25;0.00;0.00;0.62;0.00;0.00;0.62;2.43;1.40;;;21.50;27.20;;;;;;2257066;61;20366;-58
2024/01/03 03:08:09;0.00;0.00;0.62;0.00;0.00;0.62;3.70;2.10;;;21.50;27.10;;;;;;2253887;61;20421;-56
2024/01/03 03:10:55;0.00;0.00;0.62;0.00;0.00;0.62;3.30;1.80;;;21.50;27.10;;;;;;2256508;61;20397;-55
2024/01/03 03:13:40;0.00;0.00;0.62;0.00;0.00;0.62;3.43;1.70;;;21.50;27.10;;;;;;2256759;61;20821;-58
2024/01/03 03:16:25;0.00;0.00;0.62;0.00;0.00;0.62;3.67;2.27;;;21.50;27.10;;;;;;2253738;61;20894;-55
2024/01/03 03:19:10;0.00;0.00;0.62;0.00;0.00;0.62;3.80;1.77;;;21.50;27.10;;;;;;2256646;61;20473;-57
2024/01/03 03:21:55;0.00;0.00;0.62;0.00;0.00;0.62;3.67;1.70;;;21.50;27.00;;;;;;2256468;61;20981;-56
2024/01/03 03:24:39;0.00;0.00;0.62;0.00;0.00;0.62;3.83;1.83;;;21.50;27.00;;;;;;2256339;61;20366;-57
2024/01/03 03:27:25;0.00;0.00;0.62;0.00;0.00;0.62;2.77;1.80;;;21.50;27.00;;;;;;2256781;61;20353;-56
2024/01/03 03:30:11;0.00;0.00;0.62;0.00;0.00;0.62;3.00;1.70;;;21.50;27.00;;;;;;2256810;61;20484;-59
2024/01/03 03:32:56;0.00;0.00;0.62;0.00;0.00;0.62;3.97;1.43;;;21.50;27.00;;;;;;2256171;61;20425;-58
2024/01/03 03:35:40;0.00;0.00;0.62;0.00;0.00;0.62;3.20;1.50;;;21.50;27.00;;;;;;2256774;61;20393;-53
2024/01/03 03:38:25;0.00;0.00;0.62;0.00;0.00;0.62;3.40;1.63;;;21.50;27.40;;;;;;2260708;61;20372;-56
2024/01/03 03:41:10;0.00;0.00;0.62;0.00;0.00;0.62;4.37;1.97;;;21.50;26.90;;;;;;2260079;61;20396;-56
2024/01/03 03:43:58;0.00;0.00;0.62;0.00;0.00;0.62;4.57;2.27;;;21.50;26.90;;;;;;2260284;61;20444;-54
2024/01/03 03:46:43;0.00;0.00;0.62;0.00;0.00;0.62;3.03;1.40;;;21.50;26.90;;;;;;2260338;61;20975;-60
2024/01/03 03:49:27;0.00;0.00;0.62;0.00;0.00;0.62;2.30;1.30;;;21.50;26.90;;;;;;2260756;61;20830;-59
2024/01/03 03:52:12;0.00;0.00;0.62;0.00;0.00;0.62;3.60;1.73;;;21.50;26.90;;;;;;2260097;61;20432;-58
2024/01/03 03:54:57;0.00;0.00;0.62;0.00;0.00;0.62;5.50;1.60;;;21.50;26.90;;;;;;2260287;61;20408;-59
2024/01/03 03:57:41;0.00;0.00;0.62;0.00;0.00;0.62;3.60;1.60;;;21.50;26.90;;;;;;2260578;61;20357;-58
2024/01/03 04:00:27;0.00;0.00;0.62;0.00;0.00;0.62;3.33;1.43;;;21.50;26.90;;;;;;2260728;61;20400;-55
2024/01/03 04:03:12;0.00;0.00;0.62;0.00;0.00;0.62;3.30;1.43;;;21.50;26.90;;;;;;2259608;61;20384;-59
2024/01/03 04:05:56;0.00;0.00;0.62;0.00;0.00;0.62;2.57;1.20;;;21.50;26.80;;;;;;2260577;61;20407;-57
2024/01/03 04:08:43;0.00;0.00;0.62;0.00;0.00;0.62;2.80;1.53;;;21.50;26.80;;;;;;2260752;61;20450;-58
2024/01/03 04:11:28;0.00;0.00;0.62;0.00;0.00;0.62;2.87;1.43;;;21.50;26.80;;;;;;2260647;61;20400;-59
2024/01/03 04:14:13;0.00;0.00;0.62;0.00;0.00;0.62;2.67;1.57;;;21.50;27.30;;;;;;2260624;61;20381;-56
2024/01/03 04:16:59;0.00;0.00;0.62;0.00;0.00;0.62;2.87;1.47;;;21.50;26.80;;;;;;2260223;61;20368;-57
2024/01/03 04:19:43;0.00;0.00;0.62;0.00;0.00;0.62;3.70;1.80;;;21.50;26.80;;;;;;2260610;61;20369;-55
2024/01/03 04:22:28;0.00;0.00;0.62;0.00;0.00;0.62;2.47;1.47;;;21.50;26.80;;;;;;2260096;61;20399;-56
2024/01/03 04:25:13;0.00;0.00;0.62;0.00;0.00;0.62;2.90;1.80;;;21.50;26.80;;;;;;2260155;61;20942;-57
2024/01/03 04:27:57;0.00;0.00;0.62;0.00;0.00;0.62;4.13;1.73;;;21.50;26.90;;;;;;2260501;61;20886;-59
2024/01/03 04:30:42;0.00;0.00;0.62;0.00;0.00;0.62;3.60;1.70;;;21.40;26.80;;;;;;2260502;61;20380;-57
2024/01/03 04:33:27;0.00;0.00;0.62;0.00;0.00;0.62;3.00;1.50;;;21.40;26.80;;;;;;2260298;61;20884;-55
2024/01/03 04:36:12;0.00;0.00;0.62;0.00;0.00;0.62;3.07;1.30;;;21.50;26.90;;;;;;2261262;61;20431;-59
2024/01/03 04:38:57;0.00;0.00;0.62;0.00;0.00;0.62;3.30;1.40;;;21.40;26.80;;;;;;2260670;61;20411;-59
2024/01/03 04:41:41;0.00;0.00;0.62;0.00;0.00;0.62;2.27;1.13;;;21.40;26.80;;;;;;2257116;61;20399;-58
2024/01/03 04:44:26;0.00;0.00;0.62;0.00;0.00;0.62;3.03;1.30;;;21.40;26.80;;;;;;2261161;61;20384;-60
2024/01/03 04:47:11;0.00;0.00;0.62;0.00;0.00;0.62;2.27;0.97;;;21.40;26.80;;;;;;2260755;61;20359;-56
2024/01/03 04:49:57;0.00;0.00;0.62;0.00;0.00;0.62;3.90;1.50;;;21.40;26.80;;;;;;2260985;61;20427;-54
2024/01/03 04:52:41;0.00;0.00;0.62;0.00;0.00;0.62;2.00;1.10;;;21.40;26.80;;;;;;2260601;61;20423;-57
2024/01/03 04:55:26;0.00;0.00;0.62;0.00;0.00;0.62;3.60;1.60;;;21.40;26.80;;;;;;2261047;61;20408;-57
2024/01/03 04:58:11;0.00;0.00;0.62;0.00;0.00;0.62;3.20;1.30;;;21.40;26.80;;;;;;2261146;61;20372;-58
2024/01/03 05:00:55;0.00;0.00;0.62;0.00;0.00;0.62;2.77;1.40;;;21.40;26.80;;;;;;2260719;61;20431;-58
2024/01/03 05:03:41;0.00;0.00;0.62;0.00;0.00;0.62;2.70;1.20;;;21.40;26.90;;;;;;2260932;61;20593;-58
2024/01/03 05:06:27;0.00;0.00;0.62;0.00;0.00;0.62;1.97;1.30;;;21.40;26.90;;;;;;2258069;61;20364;-59
2024/01/03 05:09:12;0.00;0.00;0.62;0.00;0.00;0.62;1.90;1.20;;;21.40;26.90;;;;;;2260734;61;20361;-59
2024/01/03 05:11:56;0.00;0.00;0.62;0.00;0.00;0.62;2.30;1.30;;;21.40;26.90;;;;;;2260752;61;20389;-59
2024/01/03 05:14:41;0.00;0.00;0.62;0.00;0.00;0.62;3.20;1.20;;;21.40;26.90;;;;;;2261119;61;20400;-58
2024/01/03 05:17:26;0.00;0.00;0.62;0.00;0.00;0.62;2.50;1.20;;;21.40;26.90;;;;;;2260787;61;20404;-57
2024/01/03 05:20:11;0.00;0.00;0.62;0.00;0.00;0.62;3.70;1.13;;;21.40;26.90;;;;;;2261266;61;20854;-55
2024/01/03 05:22:57;0.00;0.00;0.62;0.00;0.00;0.62;2.23;1.40;;;21.40;26.90;;;;;;2260420;61;20369;-58
2024/01/03 05:25:42;0.00;0.00;0.62;0.00;0.00;0.62;3.17;1.20;;;21.40;26.90;;;;;;2260992;61;20411;-59
2024/01/03 05:28:26;0.00;0.00;0.62;0.00;0.00;0.62;1.60;1.00;;;21.40;26.90;;;;;;2260969;61;20396;-58
2024/01/03 05:31:11;0.00;0.00;0.62;0.00;0.00;0.62;1.90;1.10;;;21.40;26.90;;;;;;2260470;61;20939;-54
2024/01/03 05:33:56;0.00;0.00;0.62;0.00;0.00;0.62;1.70;0.90;;;21.40;27.00;;;;;;2260805;61;20400;-58
2024/01/03 05:36:40;0.00;0.00;0.62;0.00;0.00;0.62;3.10;1.20;;;21.40;27.50;;;;;;2260954;61;20393;-58
2024/01/03 05:39:26;0.00;0.00;0.62;0.00;0.00;0.62;1.97;1.10;;;21.40;27.10;;;;;;2260808;61;20373;-56
2024/01/03 05:42:10;0.00;0.00;0.62;0.00;0.00;0.62;3.53;1.30;;;21.40;27.00;;;;;;2260357;61;20794;-60
2024/01/03 05:44:55;0.00;0.00;0.62;0.00;0.00;0.62;1.80;0.93;;;21.40;27.00;;;;;;2261151;61;20765;-59
2024/01/03 05:47:40;0.00;0.00;0.62;0.00;0.00;0.62;2.73;1.20;;;21.40;27.00;;;;;;2257826;61;20891;-55
2024/01/03 05:50:25;0.00;0.00;0.62;0.00;0.00;0.62;2.87;1.20;;;21.30;26.90;;;;;;2261126;61;20377;-59
2024/01/03 05:53:09;0.00;0.00;0.62;0.00;0.00;0.62;2.20;1.10;;;21.30;26.90;;;;;;2260176;61;20423;-60
2024/01/03 05:55:56;0.00;0.00;0.62;0.00;0.00;0.62;2.00;1.10;;;21.30;26.90;;;;;;2260992;61;20396;-56
2024/01/03 05:58:42;0.00;0.00;0.62;0.00;0.00;0.62;2.53;1.10;;;21.40;27.00;;;;;;2260919;61;20415;-55
2024/01/03 06:01:26;0.00;0.00;0.62;0.00;0.00;0.62;2.63;1.23;;;21.30;26.90;;;;;;2260619;61;20508;-58
2024/01/03 06:04:12;0.00;0.00;0.62;0.00;0.00;0.62;2.40;1.10;;;21.40;27.00;;;;;;2261023;61;20458;-57
2024/01/03 06:06:56;0.00;0.00;0.62;0.00;0.00;0.62;2.60;1.33;;;21.40;27.00;;;;;;2261203;61;20366;-57
2024/01/03 06:09:41;0.00;0.00;0.62;0.00;0.00;0.62;4.00;1.30;;;21.40;27.00;;;;;;2260617;61;20767;-59
2024/01/03 06:12:27;0.00;0.00;0.62;0.00;0.00;0.62;2.20;1.17;;;21.40;27.10;;;;;;2260809;61;20369;-56
2024/01/03 06:15:11;0.00;0.00;0.62;0.00;0.00;0.62;3.00;1.00;;;21.30;27.00;;;;;;2260477;61;20404;-58
2024/01/03 06:17:56;0.00;0.00;0.62;0.00;0.00;0.62;1.60;1.00;;;21.30;27.00;;;;;;2260966;61;20796;-59
2024/01/03 06:20:41;0.00;0.00;0.62;0.00;0.00;0.62;2.40;0.90;;;21.30;27.50;;;;;;2260780;61;20388;-57
2024/01/03 06:23:25;0.00;0.00;0.62;0.00;0.00;0.62;1.80;0.97;;;21.40;27.10;;;;;;2260257;61;20369;-55
2024/01/03 06:26:10;0.00;0.00;0.62;0.00;0.00;0.62;5.37;1.00;;;21.30;27.00;;;;;;2260626;61;20939;-58
2024/01/03 06:28:56;0.00;0.00;0.62;0.00;0.00;0.62;1.57;0.90;;;21.30;27.00;;;;;;2260699;61;20380;-57
2024/01/03 06:31:41;0.00;0.00;0.62;0.00;0.00;0.62;2.00;0.90;;;21.30;27.10;;;;;;2260010;61;20385;-56
2024/01/03 06:34:26;0.00;0.00;0.62;0.00;0.00;0.62;3.93;1.37;;;21.30;27.00;;;;;;2260817;61;20817;-57
2024/01/03 06:37:10;0.00;0.00;0.62;0.00;0.00;0.62;1.73;1.10;;;21.30;27.00;;;;;;2260560;61;20361;-56
2024/01/03 06:39:55;0.00;0.00;0.62;0.00;0.00;0.62;1.60;0.93;;;21.30;27.00;;;;;;2260682;61;20376;-56
2024/01/03 06:42:39;0.00;0.00;0.62;0.00;0.00;0.62;1.63;0.80;;;21.30;27.10;;;;;;2260433;61;20560;-57
2024/01/03 06:45:26;0.00;0.00;0.62;0.00;0.00;0.62;2.07;1.17;;;21.30;27.10;;;;;;2260310;61;20437;-59
2024/01/03 06:48:10;0.00;0.00;0.62;0.00;0.00;0.62;2.70;1.00;;;21.30;27.10;;;;;;2260822;61;20376;-58
2024/01/03 06:50:55;0.00;0.00;0.62;0.00;0.00;0.62;2.20;1.00;;;21.30;27.10;;;;;;2257278;61;20384;-56
2024/01/03 06:53:40;0.00;0.00;0.62;0.00;0.00;0.62;3.23;1.27;;;21.30;27.10;;;;;;2259961;61;20609;-56
2024/01/03 06:56:24;0.00;0.00;0.62;0.00;0.00;0.62;2.93;1.30;;;21.30;27.10;;;;;;2260350;61;20396;-56
2024/01/03 06:59:09;0.00;0.00;0.62;0.00;0.00;0.62;2.60;1.20;;;21.30;27.10;;;;;;2260221;61;20365;-55
2024/01/03 07:01:56;0.00;0.00;0.62;0.00;0.00;0.62;2.33;1.03;;;21.30;27.10;;;;;;2259966;61;21033;-56
2024/01/03 07:04:40;0.00;0.00;0.62;0.00;0.00;0.62;2.23;1.03;;;21.30;27.10;;;;;;2260448;61;20373;-60
2024/01/03 07:07:25;0.00;0.00;0.62;0.00;0.00;0.62;3.23;1.03;;;21.30;27.10;;;;;;2260307;61;20368;-60
2024/01/03 07:10:09;0.00;0.00;0.62;0.00;0.00;0.62;3.30;1.47;;;21.30;27.10;;;;;;2260337;61;20825;-60
2024/01/03 07:12:54;0.00;0.00;0.62;0.00;0.00;0.62;3.30;1.40;;;21.30;27.20;;;;;;2260302;61;20365;-57
2024/01/03 07:15:39;0.00;0.00;0.62;0.00;0.00;0.62;2.80;1.40;;;21.30;27.20;;;;;;2260133;61;21013;-59
2024/01/03 07:18:24;0.00;0.00;0.62;0.00;0.00;0.62;2.20;1.27;;;21.30;27.20;;;;;;2260716;61;20894;-58
2024/01/03 07:21:09;0.00;0.00;0.62;0.00;0.00;0.62;2.77;1.73;;;21.30;27.20;;;;;;2260420;61;20396;-61
2024/01/03 07:23:54;0.00;0.00;0.62;0.00;0.00;0.62;3.20;1.83;;;21.30;27.20;;;;;;2260428;61;20518;-58
2024/01/03 07:26:38;0.00;0.00;0.62;0.00;0.00;0.62;5.23;2.80;;;21.30;27.20;;;;;;2257172;61;20357;-60
2024/01/03 07:29:23;0.00;0.00;0.62;0.00;0.00;0.62;3.63;2.13;;;21.30;27.20;;;;;;2260414;61;20419;-58
2024/01/03 07:32:07;0.00;0.00;0.62;0.00;0.00;0.62;3.20;1.37;;;21.30;27.20;;;;;;2260364;61;20365;-52
2024/01/03 07:34:54;0.00;0.00;0.62;0.00;0.00;0.62;3.20;2.00;;;21.30;27.20;;;;;;2260742;61;20388;-58
2024/01/03 07:37:39;0.00;0.00;0.62;0.00;0.00;0.62;4.00;1.97;;;21.30;27.20;;;;;;2256944;61;20372;-57
2024/01/03 07:40:23;0.00;0.00;0.62;0.00;0.00;0.62;3.57;1.70;;;21.30;27.20;;;;;;2260715;61;20431;-56
2024/01/03 07:43:08;0.00;0.00;0.62;0.00;0.00;0.62;3.73;1.83;;;21.30;27.20;;;;;;2260151;61;20886;-54
2024/01/03 07:45:53;0.00;0.00;0.62;0.00;0.00;0.62;3.60;2.03;;;21.30;27.20;;;;;;2260434;61;20345;-55
2024/01/03 07:48:37;0.00;0.00;0.62;0.00;0.00;0.62;2.47;1.90;;;21.30;27.20;;;;;;2257402;61;20904;-59
2024/01/03 07:51:23;0.00;0.00;0.62;0.00;0.00;0.62;2.77;1.93;;;21.30;27.20;;;;;;2260106;61;20384;-57
2024/01/03 07:54:09;0.00;0.00;0.62;0.00;0.00;0.62;2.73;1.60;;;21.30;27.20;;;;;;2260330;61;20782;-59
2024/01/03 07:56:54;0.00;0.00;0.62;0.00;0.00;0.62;3.27;1.93;;;21.30;27.20;;;;;;2260491;61;20408;-57
2024/01/03 07:59:42;0.00;0.00;0.62;0.00;0.00;0.62;2.73;1.83;;;21.30;27.20;;;;;;2260091;61;20496;-54
2024/01/03 08:02:27;0.00;0.00;0.62;0.00;0.00;0.62;4.23;1.97;;;21.30;27.20;;;;;;2260307;61;20361;-57
2024/01/03 08:05:12;0.00;0.00;0.62;0.00;0.00;0.62;4.20;2.47;;;21.30;27.20;;;;;;2260474;61;20416;-57
2024/01/03 08:07:58;0.00;0.00;0.62;0.00;0.00;0.62;4.80;2.23;;;21.30;27.20;;;;;;2261114;61;20449;-58
2024/01/03 08:10:43;0.00;0.00;0.62;0.00;0.00;0.62;5.43;2.60;;;21.30;27.20;;;;;;2261355;61;20964;-58
2024/01/03 08:13:28;0.00;0.00;0.62;0.00;0.00;0.62;3.73;2.00;;;21.30;27.20;;;;;;2260618;61;20388;-59
2024/01/03 08:16:12;0.00;0.00;0.62;0.00;0.00;0.62;3.10;1.80;;;21.30;27.20;;;;;;2258410;61;20403;-55
2024/01/03 08:18:57;0.00;0.00;0.62;0.00;0.00;0.62;3.60;2.13;;;21.30;27.20;;;;;;2261233;61;20360;-56
2024/01/03 08:21:41;0.00;0.00;0.62;0.00;0.00;0.62;2.87;1.80;;;21.30;27.20;;;;;;2257581;61;20730;-51
2024/01/03 08:24:27;0.00;0.00;0.62;0.00;0.00;0.62;3.33;2.33;;;21.30;27.20;;;;;;2261361;61;20368;-56
2024/01/03 08:27:12;0.00;0.00;0.62;0.00;0.00;0.62;3.77;1.93;;;21.30;27.20;;;;;;2261076;61;20418;-56
2024/01/03 08:29:57;0.00;0.00;0.62;0.00;0.00;0.62;3.13;1.80;;;21.30;27.20;;;;;;2261037;61;20952;-58
2024/01/03 08:32:41;0.00;0.00;0.62;0.00;0.00;0.62;3.80;1.90;;;21.30;27.20;;;;;;2597781;45;20404;-57
2024/01/03 08:35:26;0.00;0.00;0.62;0.00;0.00;0.62;3.60;2.30;;;21.30;27.20;;;;;;2256914;61;20386;-56
2024/01/03 08:38:11;0.00;0.00;0.62;0.00;0.00;0.62;3.23;1.83;;;21.30;27.20;;;;;;2251807;61;20369;-54
2024/01/03 08:40:57;0.00;0.00;0.62;0.00;0.00;0.62;2.60;1.60;;;21.30;27.20;;;;;;2257407;61;20461;-56
2024/01/03 08:43:42;0.00;0.00;0.62;0.00;0.00;0.62;2.90;2.10;;;21.30;27.20;;;;;;2256465;61;20400;-54
2024/01/03 08:46:30;0.00;0.00;0.62;0.00;0.00;0.62;3.80;1.77;;;21.30;27.20;;;;;;2254071;61;20421;-53
2024/01/03 08:49:15;0.00;0.00;0.62;0.00;0.00;0.62;1.90;1.70;;;21.30;27.20;;;;;;2254107;61;20417;-55
2024/01/03 08:51:59;0.00;0.00;0.62;0.00;0.00;0.62;3.60;1.60;;;21.30;27.20;;;;;;2256597;61;20448;-54
2024/01/03 08:54:44;0.00;0.00;0.62;0.00;0.00;0.62;2.73;1.60;;;21.30;27.20;;;;;;2254217;61;20456;-56
2024/01/03 08:57:31;0.00;0.00;0.62;0.00;0.00;0.62;3.33;1.87;;;21.30;27.20;;;;;;2257160;61;20385;-57
2024/01/03 09:00:17;0.00;0.00;0.62;0.00;0.00;0.62;4.43;1.90;;;21.30;27.20;;;;;;2257268;61;20704;-53
2024/01/03 09:03:02;0.00;0.00;0.62;0.00;0.00;0.62;3.67;2.27;;;21.30;27.20;;;;;;2256981;61;20373;-55
2024/01/03 09:05:47;0.00;0.00;0.62;0.00;0.00;0.62;3.07;1.93;;;21.30;27.20;;;;;;2257072;61;20382;-55
2024/01/03 09:08:32;0.00;0.00;0.62;0.00;0.00;0.62;4.33;2.10;;;21.30;27.20;;;;;;2257461;61;20365;-55
2024/01/03 09:11:18;0.00;0.00;0.62;0.00;0.00;0.62;2.97;1.83;;;21.30;27.20;;;;;;2257138;61;20401;-56
2024/01/03 09:14:04;0.00;0.00;0.62;0.00;0.00;0.62;3.00;2.20;;;21.30;27.20;;;;;;2257063;61;20362;-57
2024/01/03 09:16:50;0.00;0.00;0.62;0.00;0.00;0.62;2.50;2.00;;;21.30;27.20;;;;;;2253834;61;20425;-57
2024/01/03 09:19:36;0.00;0.00;0.62;0.00;0.00;0.62;3.10;1.60;;;21.30;27.20;;;;;;2257132;61;20937;-56
2024/01/03 09:22:20;0.00;0.00;0.62;0.00;0.00;0.62;3.30;1.87;;;21.30;27.30;;;;;;2256831;61;20365;-57
2024/01/03 09:25:06;0.00;0.00;0.62;0.00;0.00;0.62;2.87;1.60;;;21.30;27.30;;;;;;2257124;61;20365;-54
2024/01/03 09:27:50;0.00;0.00;0.62;0.00;0.00;0.62;2.27;1.60;;;21.30;27.30;;;;;;2256596;61;20397;-56
2024/01/03 09:30:36;0.00;0.00;0.62;0.00;0.00;0.62;2.43;1.43;;;21.30;27.30;;;;;;2257189;61;20393;-58
2024/01/03 09:33:21;0.00;0.00;0.62;0.00;0.00;0.62;3.13;2.10;;;21.30;27.30;;;;;;2256679;61;20392;-58
2024/01/03 09:36:15;0.00;0.00;0.62;0.00;0.00;0.62;3.40;1.97;;;21.30;27.30;;;;;;2256772;61;20787;-55
2024/01/03 09:39:00;0.00;0.00;0.62;0.00;0.00;0.62;2.53;1.60;;;21.30;27.30;;;;;;2257022;61;20369;-58
2024/01/03 09:41:46;0.00;0.00;0.62;0.00;0.00;0.62;3.33;1.70;;;21.30;27.30;;;;;;2256769;61;20393;-55
2024/01/03 09:44:32;0.00;0.00;0.62;0.00;0.00;0.62;2.07;1.20;;;21.30;27.30;;;;;;2257060;61;20937;-53
2024/01/03 09:47:20;0.00;0.00;0.62;0.00;0.00;0.62;2.43;1.50;;;21.30;27.30;;;;;;2257224;61;20381;-56
2024/01/03 09:50:07;0.00;0.00;0.62;0.00;0.00;0.62;4.00;2.37;;;21.30;27.30;;;;;;2253368;61;20910;-55
2024/01/03 09:52:55;0.00;0.00;0.62;0.00;0.00;0.62;2.80;2.07;;;21.30;27.30;;;;;;2250754;61;20801;-55
2024/01/03 09:55:40;0.00;0.00;0.62;0.00;0.00;0.62;2.90;1.60;;;21.30;27.30;;;;;;2253579;61;20954;-55
2024/01/03 09:58:25;0.00;0.00;0.62;0.00;0.00;0.62;2.50;1.60;;;21.30;27.30;;;;;;2256971;61;20484;-55
2024/01/03 10:01:09;0.00;0.00;0.62;0.00;0.00;0.62;2.60;1.50;;;21.30;27.30;;;;;;2256908;61;20397;-51
2024/01/03 10:03:55;0.00;0.00;0.62;0.00;0.00;0.62;4.37;2.60;;;21.30;27.30;;;;;;2256985;61;20898;-58
2024/01/03 10:06:54;0.00;0.00;0.62;0.00;0.00;0.62;3.30;2.20;;;21.30;27.30;;;;;;2257075;61;20949;-57
2024/01/03 10:09:48;0.00;0.00;0.62;0.00;0.00;0.62;2.80;1.60;;;21.30;27.30;;;;;;2257295;61;20439;-55
2024/01/03 10:12:33;0.00;0.00;0.62;0.00;0.00;0.62;3.33;1.80;;;21.30;27.30;;;;;;2256428;61;20408;-55
2024/01/03 10:15:18;0.00;0.00;0.62;0.00;0.00;0.62;3.03;1.67;;;21.30;27.30;;;;;;2256933;61;20955;-58
2024/01/03 10:18:08;0.00;0.00;0.62;0.00;0.00;0.62;2.80;1.57;;;21.30;27.30;;;;;;2256940;61;20894;-56
2024/01/03 10:20:54;0.00;0.00;0.62;0.00;0.00;0.62;2.93;1.53;;;21.30;27.30;;;;;;2256773;61;20417;-55
2024/01/03 10:23:40;0.00;0.00;0.62;0.00;0.00;0.62;3.13;2.10;;;21.30;27.30;;;;;;2256938;61;20381;-56
2024/01/03 10:26:28;0.00;0.00;0.62;0.00;0.00;0.62;2.90;2.10;;;21.30;27.30;;;;;;2256871;61;20478;-57
2024/01/03 10:29:14;0.00;0.00;0.62;0.00;0.00;0.62;2.30;1.57;;;21.30;27.30;;;;;;2256800;61;20382;-52
2024/01/03 10:31:59;0.00;0.00;0.62;0.00;0.00;0.62;3.20;1.70;;;21.30;27.40;;;;;;2256642;61;20786;-57
2024/01/03 10:34:43;0.00;0.00;0.62;0.00;0.00;0.62;4.20;2.17;;;21.30;27.30;;;;;;2256628;61;20450;-58
2024/01/03 10:37:30;0.00;0.00;0.62;0.00;0.00;0.62;3.63;2.27;;;21.30;27.30;;;;;;2256689;61;20837;-57
2024/01/03 10:40:15;0.00;0.00;0.62;0.00;0.00;0.62;3.00;1.97;;;21.40;27.40;;;;;;2256767;61;20415;-56
2024/01/03 10:43:01;0.00;0.00;0.62;0.00;0.00;0.62;2.77;1.70;;;21.30;27.30;;;;;;2255740;61;20361;-58
2024/01/03 10:45:45;0.00;0.00;0.62;0.00;0.00;0.62;3.13;2.20;;;21.40;27.40;;;;;;2256514;61;20359;-56
2024/01/03 10:48:30;0.00;0.00;0.62;0.00;0.00;0.62;3.10;1.70;;;21.40;27.40;;;;;;2256283;61;20374;-57
2024/01/03 10:51:17;0.00;0.00;0.62;0.00;0.00;0.62;2.47;1.87;;;21.30;27.40;;;;;;2256507;61;20436;-58